Time;durP1;ratioP1;P1;durP2;ratioP2;P2;SDS_P1;SDS_P2;PMS_P1;PMS_P2;Temp;Humidity;BMP_temperature;BMP_pressure;BME280_temperature;BME280_humidity;BME280_pressure;Samples;Min_cycle;Max_cycle;Signal;HPM_P1;HPM_P2
2022/05/12 00:03:21;;;;;;;3.87;2.20;;;;;;;24.58;30.30;98512.16;7031378;28;20250;-78
2022/05/12 00:06:42;;;;;;;6.20;2.63;;;;;;;24.49;29.97;98522.19;7030713;28;20726;-78
2022/05/12 00:10:06;;;;;;;2.97;2.53;;;;;;;24.54;30.50;98527.63;7031657;28;20599;-78
2022/05/12 00:13:27;;;;;;;2.80;2.40;;;;;;;24.50;29.90;98528.53;7031351;28;20232;-78
2022/05/12 00:16:49;;;;;;;2.90;2.60;;;;;;;24.85;29.88;98528.78;7030792;28;20213;-78
2022/05/12 00:20:14;;;;;;;5.43;2.60;;;;;;;24.79;29.78;98523.63;7031880;28;20214;-79
2022/05/12 00:23:35;;;;;;;3.37;2.90;;;;;;;24.69;29.91;98523.81;7030870;28;20213;-78
2022/05/12 00:26:57;;;;;;;3.57;2.30;;;;;;;24.68;29.68;98536.81;7029829;28;20688;-78
2022/05/12 00:30:19;;;;;;;4.23;2.77;;;;;;;25.09;29.46;98534.94;7030161;28;20209;-78
2022/05/12 00:33:40;;;;;;;3.10;2.90;;;;;;;25.29;29.24;98539.25;7030026;28;20603;-78
2022/05/12 00:37:04;;;;;;;2.90;2.60;;;;;;;25.04;29.00;98537.78;7029154;28;20228;-78
2022/05/12 00:40:26;;;;;;;3.27;2.70;;;;;;;25.38;28.41;98535.50;7030245;28;20386;-78
2022/05/12 00:43:50;;;;;;;2.90;2.70;;;;;;;25.95;27.78;98534.03;7029878;28;20681;-79
2022/05/12 00:47:12;;;;;;;3.07;2.53;;;;;;;25.96;27.57;98533.69;7027868;28;20691;-78
2022/05/12 00:50:37;;;;;;;4.13;2.70;;;;;;;25.92;27.61;98537.38;7029789;28;20221;-79
2022/05/12 00:54:04;;;;;;;7.57;2.70;;;;;;;25.74;28.01;98549.34;7029279;28;20215;-78
2022/05/12 00:57:28;;;;;;;3.10;2.80;;;;;;;26.02;27.72;98553.75;7027977;28;20311;-78
2022/05/12 01:00:50;;;;;;;3.77;2.60;;;;;;;26.23;27.51;98554.91;7010218;28;20331;-78
2022/05/12 01:04:12;;;;;;;4.07;2.63;;;;;;;26.33;27.68;98551.91;7006621;28;20271;-78
2022/05/12 01:07:33;;;;;;;4.40;2.80;;;;;;;26.74;26.86;98560.88;7006255;28;20240;-79
2022/05/12 01:10:58;;;;;;;3.70;3.00;;;;;;;26.53;27.27;98562.47;7006958;28;20216;-79
2022/05/12 01:14:19;;;;;;;4.33;2.97;;;;;;;26.21;27.71;98546.09;7005884;28;20324;-78
2022/05/12 01:17:41;;;;;;;4.57;2.80;;;;;;;25.58;28.93;98559.91;7006931;28;20661;-79
2022/05/12 01:21:03;;;;;;;5.67;2.80;;;;;;;25.68;28.75;98572.69;7006405;28;20260;-78
2022/05/12 01:24:32;;;;;;;3.30;2.73;;;;;;;24.89;30.04;98575.88;7006032;28;20324;-78
2022/05/12 01:27:53;;;;;;;2.73;2.53;;;;;;;25.08;30.05;98580.19;7006559;28;20193;-78
2022/05/12 01:31:16;;;;;;;2.90;2.60;;;;;;;24.69;30.04;98582.56;7006240;28;20220;-78
2022/05/12 01:34:37;;;;;;;4.90;2.80;;;;;;;24.37;30.68;98585.22;7005289;28;20236;-78
2022/05/12 01:38:00;;;;;;;4.47;3.00;;;;;;;24.47;30.74;98590.59;7006499;28;20206;-78
2022/05/12 01:41:22;;;;;;;3.03;2.80;;;;;;;24.38;30.74;98594.31;7006418;28;20209;-78
2022/05/12 01:44:44;;;;;;;4.03;3.13;;;;;;;24.38;30.81;98605.34;7003821;28;20237;-78
2022/05/12 01:48:08;;;;;;;5.30;2.97;;;;;;;24.69;30.44;98614.81;7006213;28;20722;-78
2022/05/12 01:51:35;;;;;;;4.17;3.07;;;;;;;24.63;30.41;98622.34;7005599;28;20220;-79
2022/05/12 01:54:57;;;;;;;3.60;2.70;;;;;;;25.24;29.90;98631.25;7005054;28;20236;-79
2022/05/12 01:58:21;;;;;;;4.10;3.00;;;;;;;25.20;30.12;98632.94;7005928;28;20212;-78
2022/05/12 02:01:43;;;;;;;5.77;2.90;;;;;;;25.26;30.27;98630.97;7006222;28;20694;-78
2022/05/12 02:05:05;;;;;;;3.63;2.83;;;;;;;25.23;30.78;98648.91;7005323;28;20221;-79
2022/05/12 02:08:27;;;;;;;2.67;2.47;;;;;;;24.79;31.34;98644.97;7006309;28;20234;-77
2022/05/12 02:11:48;;;;;;;5.37;2.67;;;;;;;24.83;31.72;98663.38;7005897;28;20198;-78
2022/05/12 02:15:12;;;;;;;3.70;2.80;;;;;;;24.75;32.49;98664.06;7004153;28;20244;-79
2022/05/12 02:18:34;;;;;;;5.00;2.87;;;;;;;23.99;34.55;98663.47;7005111;28;20207;-78
2022/05/12 02:21:58;;;;;;;3.10;2.80;;;;;;;23.36;35.59;98664.72;7004995;28;20206;-78
2022/05/12 02:25:20;;;;;;;4.40;3.13;;;;;;;23.39;35.80;98675.16;7005033;28;20700;-78
2022/05/12 02:28:42;;;;;;;3.33;3.03;;;;;;;23.25;36.50;98668.69;7006466;28;20340;-78
2022/05/12 02:32:05;;;;;;;5.13;3.00;;;;;;;22.91;36.65;98658.78;7005393;28;20213;-78
2022/05/12 02:35:29;;;;;;;3.33;3.03;;;;;;;23.27;36.30;98682.16;7004814;28;20237;-78
2022/05/12 02:38:50;;;;;;;3.33;3.03;;;;;;;22.97;36.78;98652.13;7005408;28;20251;-78
2022/05/12 02:42:12;;;;;;;3.50;2.73;;;;;;;23.33;36.08;98686.50;7006047;28;20205;-78
2022/05/12 02:45:33;;;;;;;4.10;3.30;;;;;;;22.53;38.82;98678.88;7003729;28;20305;-78
2022/05/12 02:48:57;;;;;;;4.47;2.70;;;;;;;22.39;39.44;98681.41;7008555;28;20207;-79
2022/05/12 02:52:18;;;;;;;4.47;3.03;;;;;;;21.70;41.29;98682.53;7008262;28;20676;-78
2022/05/12 02:55:40;;;;;;;4.17;3.03;;;;;;;21.98;40.90;98712.09;7003603;28;20716;-78
2022/05/12 02:59:02;;;;;;;4.57;3.70;;;;;;;22.16;40.17;98709.56;7004607;28;20210;-78
2022/05/12 03:02:23;;;;;;;4.87;3.10;;;;;;;22.41;40.10;98714.91;7004468;28;20732;-78
2022/05/12 03:05:46;;;;;;;5.60;3.23;;;;;;;22.38;40.41;98711.91;7003443;28;20704;-78
2022/05/12 03:09:08;;;;;;;3.90;3.50;;;;;;;21.94;41.17;98684.38;7003644;28;20207;-78
2022/05/12 03:12:30;;;;;;;3.10;2.90;;;;;;;21.55;41.88;98720.97;7003289;28;20227;-78
2022/05/12 03:15:51;;;;;;;4.73;3.00;;;;;;;21.53;42.37;98714.94;7002607;28;20390;-78
2022/05/12 03:19:14;;;;;;;5.27;3.40;;;;;;;21.71;42.21;98733.59;7003376;28;20640;-78
2022/05/12 03:22:37;;;;;;;3.60;3.30;;;;;;;21.42;42.92;98735.25;7004315;28;20207;-78
2022/05/12 03:25:58;;;;;;;3.90;3.50;;;;;;;20.50;45.53;98739.25;7004727;28;20230;-78
2022/05/12 03:29:20;;;;;;;4.40;3.10;;;;;;;20.72;44.74;98748.09;7005897;28;20290;-78
2022/05/12 03:32:42;;;;;;;6.97;3.90;;;;;;;21.51;42.63;98741.81;7005661;28;20205;-78
2022/05/12 03:36:04;;;;;;;3.70;3.13;;;;;;;21.66;42.30;98733.56;7005393;28;20231;-78
2022/05/12 03:39:27;;;;;;;3.40;3.10;;;;;;;21.46;42.78;98725.38;7005737;28;20624;-76
2022/05/12 03:42:50;;;;;;;5.63;3.40;;;;;;;21.31;43.59;98739.91;7005575;28;20202;-78
2022/05/12 03:46:12;;;;;;;3.97;3.37;;;;;;;21.63;42.74;98750.59;7002981;28;20278;-78
2022/05/12 03:49:33;;;;;;;4.50;3.50;;;;;;;21.18;44.07;98750.66;7005823;28;20624;-78
2022/05/12 03:52:56;;;;;;;4.37;3.40;;;;;;;21.67;42.90;98758.00;7010530;28;20208;-79
2022/05/12 03:56:19;;;;;;;3.93;3.20;;;;;;;21.55;43.32;98762.13;7021875;28;20237;-78
2022/05/12 03:59:41;;;;;;;4.10;3.40;;;;;;;21.50;43.26;98754.75;7011687;28;20210;-78
2022/05/12 04:03:03;;;;;;;5.17;3.40;;;;;;;21.61;43.11;98782.97;7016742;28;20207;-78
2022/05/12 04:06:25;;;;;;;4.30;3.80;;;;;;;20.48;45.90;98780.63;7021096;28;20254;-78
2022/05/12 04:09:47;;;;;;;3.20;2.90;;;;;;;21.08;45.22;98796.41;7014785;28;20207;-78
2022/05/12 04:13:10;;;;;;;3.70;3.20;;;;;;;21.25;44.45;98793.13;7003024;28;20205;-78
2022/05/12 04:16:33;;;;;;;4.43;3.30;;;;;;;20.63;46.13;98799.03;7002521;28;20228;-78
2022/05/12 04:19:55;;;;;;;3.83;3.40;;;;;;;20.39;47.09;98812.38;7017151;28;20214;-78
2022/05/12 04:23:16;;;;;;;7.30;3.80;;;;;;;20.76;46.12;98812.22;7018774;28;20197;-78
2022/05/12 04:26:40;;;;;;;3.70;3.33;;;;;;;20.99;45.74;98823.53;7019241;28;20222;-78
2022/05/12 04:30:04;;;;;;;5.60;3.27;;;;;;;21.30;44.87;98812.34;7010419;28;20274;-78
2022/05/12 04:37:05;;;;;;;4.10;3.70;;;;;;;21.16;45.72;98821.38;7034388;28;20759;-78
2022/05/12 04:40:29;;;;;;;6.63;3.73;;;;;;;21.18;45.42;98841.94;7036099;28;20575;-77
2022/05/12 04:43:50;;;;;;;7.17;3.30;;;;;;;20.91;46.55;98851.50;7020333;28;20596;-78
2022/05/12 04:47:13;;;;;;;4.20;3.40;;;;;;;21.02;46.42;98847.69;7016983;28;20304;-78
2022/05/12 04:50:37;;;;;;;6.17;3.70;;;;;;;21.24;46.52;98857.31;7035116;28;20756;-78
2022/05/12 04:53:59;;;;;;;5.37;4.00;;;;;;;21.13;46.99;98855.63;7035622;28;20297;-79
2022/05/12 04:57:20;;;;;;;4.50;3.70;;;;;;;21.44;46.08;98856.50;7034678;28;20327;-77
2022/05/12 05:00:43;;;;;;;4.30;3.50;;;;;;;21.22;47.50;98855.94;7026946;28;20289;-77
2022/05/12 05:04:07;;;;;;;4.50;3.63;;;;;;;21.58;46.54;98863.09;7017225;28;20272;-78
2022/05/12 05:07:28;;;;;;;8.37;4.40;;;;;;;22.01;46.68;98870.81;7034342;28;20223;-78
2022/05/12 05:10:51;;;;;;;5.47;3.30;;;;;;;22.36;46.03;98877.03;7033894;28;20298;-78
2022/05/12 05:14:12;;;;;;;3.80;3.50;;;;;;;22.86;43.70;98873.28;7034206;28;20202;-78
2022/05/12 05:17:35;;;;;;;4.90;2.50;;;;;;;23.34;42.77;98887.09;7021940;28;20271;-77
2022/05/12 05:20:58;;;;;;;6.47;2.80;;;;;;;24.16;41.44;98883.41;7017557;28;20199;-77
2022/05/12 05:24:19;;;;;;;4.27;2.20;;;;;;;24.85;39.71;98884.59;7024414;28;20864;-77
2022/05/12 05:27:41;;;;;;;2.70;2.43;;;;;;;25.04;39.36;98890.94;7025587;28;20282;-78
2022/05/12 05:31:02;;;;;;;3.23;2.20;;;;;;;25.15;38.51;98897.16;7021903;28;20222;-78
2022/05/12 05:34:24;;;;;;;1.90;1.77;;;;;;;26.01;37.10;98887.28;7007387;28;20212;-78
2022/05/12 05:37:48;;;;;;;2.30;2.10;;;;;;;25.84;37.39;98900.78;7007788;28;20206;-79
2022/05/12 05:41:09;;;;;;;6.10;2.13;;;;;;;25.64;37.72;98919.63;7029751;28;20213;-78
2022/05/12 05:44:32;;;;;;;2.87;2.20;;;;;;;25.59;37.67;98914.22;7032830;28;20216;-78
2022/05/12 05:47:56;;;;;;;2.30;2.10;;;;;;;25.66;37.41;98901.66;7007066;28;20246;-77
2022/05/12 05:54:58;;;;;;;2.20;2.00;;;;;;;24.86;39.39;98935.03;7022843;28;20700;-79
2022/05/12 05:58:20;;;;;;;5.83;2.20;;;;;;;24.89;39.32;98943.53;7015916;28;20228;-78
2022/05/12 06:01:42;;;;;;;2.47;2.10;;;;;;;24.79;39.52;98953.88;7026219;28;20258;-78
2022/05/12 06:05:05;;;;;;;2.43;2.10;;;;;;;24.53;39.74;98953.31;7031600;28;20225;-78
2022/05/12 06:08:27;;;;;;;2.87;1.80;;;;;;;24.09;40.52;98954.56;7058253;28;20207;-79
2022/05/12 06:11:50;;;;;;;4.67;1.80;;;;;;;24.23;40.10;98958.28;7042511;28;20211;-79
2022/05/12 06:15:13;;;;;;;2.60;1.87;;;;;;;24.32;39.85;98971.16;7033627;28;20229;-79
2022/05/12 06:18:36;;;;;;;3.70;1.80;;;;;;;24.61;40.02;98966.47;7034595;28;20201;-79
2022/05/12 06:21:58;;;;;;;2.40;1.80;;;;;;;24.77;39.41;98953.38;7034432;28;20197;-79
2022/05/12 06:25:20;;;;;;;2.50;1.60;;;;;;;25.20;38.53;98980.69;7034791;28;20292;-79
2022/05/12 06:28:45;;;;;;;2.53;1.90;;;;;;;24.59;39.74;98973.41;7034163;28;20349;-79
2022/05/12 06:32:07;;;;;;;4.20;2.00;;;;;;;24.33;40.09;98981.06;7034018;28;20589;-79
2022/05/12 06:35:29;;;;;;;2.77;1.60;;;;;;;24.65;40.02;98975.00;7032884;28;20221;-79
2022/05/12 06:38:50;;;;;;;3.30;1.70;;;;;;;24.24;40.65;98971.78;7032271;28;20201;-79
2022/05/12 06:42:13;;;;;;;1.80;1.70;;;;;;;25.15;39.62;98994.56;7033451;28;20205;-79
2022/05/12 06:45:36;;;;;;;3.73;1.83;;;;;;;25.17;39.27;98997.84;7031519;28;20257;-79
2022/05/12 06:48:57;;;;;;;3.17;2.00;;;;;;;25.29;39.18;99001.03;7033286;28;20205;-82
2022/05/12 06:52:19;;;;;;;3.87;1.90;;;;;;;25.38;38.43;98976.34;7011933;28;20687;-80
2022/05/12 06:55:41;;;;;;;3.03;1.80;;;;;;;25.48;39.07;99009.38;7008154;28;20233;-80
2022/05/12 06:59:03;;;;;;;3.40;1.70;;;;;;;25.03;39.83;99010.72;7019011;28;20201;-79
2022/05/12 07:02:27;;;;;;;3.60;1.90;;;;;;;25.13;39.13;99001.50;7013563;28;20206;-80
2022/05/12 07:05:48;;;;;;;2.87;1.70;;;;;;;24.48;40.14;99007.69;7010758;28;20347;-80
2022/05/12 07:09:10;;;;;;;1.77;1.60;;;;;;;24.27;41.03;99012.56;7025026;28;20653;-79
2022/05/12 07:12:31;;;;;;;3.80;1.60;;;;;;;24.85;40.66;99028.03;7027850;28;20294;-79
2022/05/12 07:15:54;;;;;;;3.40;1.83;;;;;;;25.37;40.04;99005.88;7004985;28;20360;-79
2022/05/12 07:19:17;;;;;;;1.80;1.63;;;;;;;25.81;38.66;99014.69;7005611;28;20210;-80
2022/05/12 07:26:36;;;;;;;3.17;1.70;;;;;;;26.89;36.59;99037.25;7005774;28;20213;-80
2022/05/12 07:29:57;;;;;;;2.90;1.97;;;;;;;26.98;36.96;99010.53;7033585;28;20210;-80
2022/05/12 07:33:19;;;;;;;2.57;1.70;;;;;;;27.05;36.12;99032.25;7034883;28;20561;-80
2022/05/12 07:36:43;;;;;;;3.67;1.63;;;;;;;26.71;36.65;99032.59;7033967;28;20323;-80
2022/05/12 07:40:07;;;;;;;2.13;1.60;;;;;;;27.90;34.70;99039.63;7034708;28;20202;-79
2022/05/12 07:43:28;;;;;;;3.40;1.53;;;;;;;26.43;36.30;99052.19;7034961;28;20208;-79
2022/05/12 07:46:50;;;;;;;2.03;1.77;;;;;;;26.54;36.65;99054.47;7033646;28;20238;-80
2022/05/12 07:50:11;;;;;;;3.37;1.63;;;;;;;27.98;34.33;99046.41;7034997;28;20215;-80
2022/05/12 07:53:35;;;;;;;6.67;1.60;;;;;;;27.63;34.82;99023.06;7035097;28;20205;-80
2022/05/12 07:56:57;;;;;;;4.33;1.97;;;;;;;28.39;33.89;99028.53;7034592;28;20239;-80
2022/05/12 08:00:19;;;;;;;4.53;1.50;;;;;;;29.04;32.64;99023.22;7035156;28;20208;-80
2022/05/12 08:03:41;;;;;;;2.80;1.90;;;;;;;27.91;33.43;99035.75;7035735;28;20684;-80
2022/05/12 08:07:03;;;;;;;4.70;1.73;;;;;;;28.61;33.04;99052.66;7025139;28;20223;-80
2022/05/12 08:10:27;;;;;;;1.60;1.50;;;;;;;27.84;33.98;99048.41;7028628;28;20288;-80
2022/05/12 08:13:48;;;;;;;2.10;1.57;;;;;;;26.86;35.61;99026.81;7032565;28;20291;-80
2022/05/12 08:17:10;;;;;;;1.57;1.47;;;;;;;27.03;35.63;99057.50;7039460;28;20229;-80
2022/05/12 08:20:32;;;;;;;1.83;1.67;;;;;;;27.62;35.28;99034.44;7041327;28;20217;-80
2022/05/12 08:23:54;;;;;;;1.70;1.60;;;;;;;28.13;34.50;99057.97;7041214;28;20210;-80
2022/05/12 08:27:17;;;;;;;2.17;1.70;;;;;;;27.92;33.92;99036.56;7041111;28;20231;-80
2022/05/12 08:30:38;;;;;;;1.70;1.50;;;;;;;28.38;33.69;99040.72;7052492;28;20203;-80
2022/05/12 08:34:00;;;;;;;4.50;2.43;;;;;;;28.62;33.22;99035.72;7054995;28;20203;-80
2022/05/12 08:37:22;;;;;;;2.60;2.10;;;;;;;28.81;33.58;99041.88;7039716;28;20643;-80
2022/05/12 08:40:48;;;;;;;4.73;1.90;;;;;;;27.86;34.19;99052.50;7056160;28;20206;-79
2022/05/12 08:44:13;;;;;;;3.23;2.10;;;;;;;28.05;34.50;99044.84;7055601;28;20653;-80
2022/05/12 08:47:41;;;;;;;3.23;1.83;;;;;;;29.07;32.18;99048.41;7041431;28;20226;-80
2022/05/12 08:51:03;;;;;;;4.87;2.00;;;;;;;29.37;32.57;99058.66;7037518;28;20215;-80
2022/05/12 08:54:26;;;;;;;2.00;1.80;;;;;;;29.75;31.48;99068.16;7036781;28;20208;-80
2022/05/12 08:57:51;;;;;;;5.33;2.10;;;;;;;29.28;32.42;99073.66;7037274;28;20703;-80
2022/05/12 09:01:18;;;;;;;2.97;2.10;;;;;;;29.15;32.54;99072.63;7034707;28;20683;-80
2022/05/12 09:04:54;;;;;;;3.43;1.80;;;;;;;28.98;32.65;99063.38;7036649;28;20306;-80
2022/05/12 09:08:23;;;;;;;2.27;2.07;;;;;;;28.63;34.45;99075.34;7036838;28;20209;-79
2022/05/12 09:11:46;;;;;;;2.30;2.00;;;;;;;29.21;33.00;99085.25;7036791;28;20204;-79
2022/05/12 09:15:12;;;;;;;6.63;2.00;;;;;;;29.44;32.73;99077.66;7036014;28;20239;-80
2022/05/12 09:18:36;;;;;;;5.17;2.67;;;;;;;28.58;33.28;99079.09;7036580;28;20211;-80
2022/05/12 09:21:58;;;;;;;4.60;2.43;;;;;;;27.68;33.85;99030.41;7037007;28;20205;-80
2022/05/12 09:25:34;;;;;;;2.80;2.20;;;;;;;27.67;34.56;99051.75;7035653;28;20687;-79
2022/05/12 09:29:08;;;;;;;3.60;2.20;;;;;;;28.76;33.77;99058.66;7019034;28;20197;-79
2022/05/12 09:32:32;;;;;;;3.70;2.20;;;;;;;28.44;33.81;99045.06;7014277;28;20198;-80
2022/05/12 09:35:57;;;;;;;3.37;2.57;;;;;;;28.27;33.51;98988.56;7013873;28;20232;-80
2022/05/12 09:39:36;;;;;;;2.90;2.60;;;;;;;28.79;33.33;99060.78;7008886;28;20616;-79
2022/05/12 09:43:00;;;;;;;3.10;2.30;;;;;;;28.96;32.77;99065.66;7008429;28;20208;-80
2022/05/12 09:46:29;;;;;;;3.50;2.50;;;;;;;28.79;32.86;99058.00;7006912;28;20223;-82
2022/05/12 09:49:51;;;;;;;3.93;2.73;;;;;;;28.32;33.86;99053.06;7008468;28;20207;-80
2022/05/12 09:53:25;;;;;;;7.90;4.50;;;;;;;29.13;32.95;99049.09;7008639;28;20276;-83
2022/05/12 09:56:58;;;;;;;8.97;5.63;;;;;;;28.86;32.72;99055.63;7007907;28;20222;-81
2022/05/12 10:00:35;;;;;;;2.67;2.40;;;;;;;28.89;32.88;99023.63;7009207;28;20197;-81
2022/05/12 10:08:06;;;;;;;4.30;2.50;;;;;;;28.91;33.20;99047.13;6995036;28;20725;-81
2022/05/12 10:11:31;;;;;;;3.00;2.70;;;;;;;29.34;32.53;99017.63;7008354;28;20209;-80
2022/05/12 10:14:55;;;;;;;4.73;2.70;;;;;;;30.12;31.84;99033.38;7008667;28;20223;-80
2022/05/12 10:18:25;;;;;;;2.93;2.60;;;;;;;30.47;31.54;99016.34;7009531;28;20764;-82
2022/05/12 10:21:51;;;;;;;6.60;2.60;;;;;;;30.91;30.17;99029.06;7016290;28;20278;-80
2022/05/12 10:25:21;;;;;;;6.40;2.43;;;;;;;30.39;31.25;99028.31;7018421;28;20231;-82
2022/05/12 10:28:53;;;;;;;2.40;2.10;;;;;;;28.87;33.36;99032.25;7037608;28;20195;-80
2022/05/12 10:32:20;;;;;;;2.63;2.43;;;;;;;28.22;34.70;99030.31;7010584;28;20646;-80
2022/05/12 10:35:46;;;;;;;4.33;2.27;;;;;;;28.92;33.02;99026.56;7009482;28;20230;-80
2022/05/12 10:39:15;;;;;;;4.07;2.53;;;;;;;28.60;33.26;98982.47;7010515;28;20214;-81
2022/05/12 10:42:50;;;;;;;3.97;2.17;;;;;;;28.77;32.84;99001.19;7009886;28;20205;-84
2022/05/12 10:46:19;;;;;;;2.70;2.40;;;;;;;29.32;33.38;99003.22;7010592;28;20232;-84
2022/05/12 10:49:46;;;;;;;7.40;2.90;;;;;;;29.65;32.17;98965.59;7012331;28;20201;-84
2022/05/12 10:53:16;;;;;;;4.17;2.73;;;;;;;29.96;31.57;98979.34;7035266;28;20217;-81
2022/05/12 10:56:43;;;;;;;4.10;2.60;;;;;;;30.21;30.98;98998.88;7036732;28;20239;-81
2022/05/12 11:00:26;;;;;;;8.83;2.80;;;;;;;31.46;28.95;98988.84;7044100;28;20184;-81
2022/05/12 11:03:53;;;;;;;3.90;2.57;;;;;;;31.42;28.86;98987.88;7023091;28;20186;-80
2022/05/12 11:07:17;;;;;;;5.77;2.70;;;;;;;29.60;31.52;98992.72;7014401;28;20277;-81
2022/05/12 11:10:44;;;;;;;3.17;2.70;;;;;;;30.86;30.01;98979.94;7016503;28;20198;-81
2022/05/12 11:14:09;;;;;;;2.70;2.50;;;;;;;31.17;29.45;98979.63;7020813;28;20884;-81
2022/05/12 11:17:34;;;;;;;5.30;2.60;;;;;;;30.57;29.92;98965.91;7035746;28;20232;-80
2022/05/12 11:21:03;;;;;;;4.23;2.90;;;;;;;29.65;32.54;98978.66;7010204;28;20653;-80
2022/05/12 11:24:33;;;;;;;4.93;2.50;;;;;;;30.45;30.62;98978.84;7007525;28;20210;-80
2022/05/12 11:31:43;;;;;;;4.73;2.80;;;;;;;30.27;30.74;98949.41;7023488;28;20694;-80
2022/05/12 11:35:07;;;;;;;2.87;2.60;;;;;;;29.99;31.33;98973.13;7007407;28;20252;-80
2022/05/12 11:38:52;;;;;;;5.23;2.80;;;;;;;30.60;31.11;98959.66;7008642;28;20226;-80
2022/05/12 11:42:20;;;;;;;2.90;2.57;;;;;;;31.11;30.05;98958.69;7007238;28;20188;-80
2022/05/12 11:45:42;;;;;;;3.77;2.60;;;;;;;30.56;29.84;98969.00;7007990;28;20225;-80
2022/05/12 11:49:06;;;;;;;7.40;2.87;;;;;;;29.94;31.53;98963.00;7007554;28;20568;-80
2022/05/12 11:52:38;;;;;;;3.63;2.60;;;;;;;31.19;29.82;98952.28;7007614;28;20213;-80
2022/05/12 11:56:06;;;;;;;3.57;2.50;;;;;;;31.36;29.28;98947.44;7007137;28;20228;-80
2022/05/12 11:59:49;;;;;;;5.10;2.80;;;;;;;30.78;30.28;98949.34;7008702;28;20195;-80
2022/05/12 12:03:37;;;;;;;4.97;3.00;;;;;;;30.71;29.94;98949.03;7008555;28;20188;-80
2022/05/12 12:06:59;;;;;;;4.27;2.70;;;;;;;31.16;29.30;98928.69;7007552;28;20225;-80
2022/05/12 12:10:33;;;;;;;2.70;2.40;;;;;;;30.64;30.15;98931.97;7008303;28;20293;-80
2022/05/12 12:13:59;;;;;;;4.63;2.90;;;;;;;31.64;28.97;98917.88;7008389;28;20205;-80
2022/05/12 12:17:31;;;;;;;2.90;2.60;;;;;;;31.27;29.56;98941.09;7007136;28;20256;-80
2022/05/12 12:20:54;;;;;;;3.73;2.70;;;;;;;31.55;29.12;98939.44;7007527;28;20632;-80
2022/05/12 12:25:00;;;;;;;5.70;2.60;;;;;;;31.64;28.30;98934.63;7009765;28;20195;-81
2022/05/12 12:28:27;;;;;;;4.07;2.63;;;;;;;31.29;28.73;98926.81;7026139;28;20208;-80
2022/05/12 12:31:54;;;;;;;4.77;2.60;;;;;;;30.67;30.12;98934.13;7019807;28;20557;-80
2022/05/12 12:35:25;;;;;;;3.23;2.93;;;;;;;29.17;32.10;98925.09;7023821;28;20235;-80
2022/05/12 12:39:10;;;;;;;3.77;2.47;;;;;;;28.38;33.19;98918.69;7031215;28;20620;-80
2022/05/12 12:42:41;;;;;;;4.40;3.10;;;;;;;29.49;30.89;98922.69;7020251;28;20208;-80
2022/05/12 12:46:16;;;;;;;4.47;3.10;;;;;;;30.41;30.71;98923.03;7015827;28;20709;-80
2022/05/12 12:49:49;;;;;;;5.50;2.80;;;;;;;31.29;28.97;98898.94;7017071;28;20247;-80
2022/05/12 12:53:15;;;;;;;3.20;2.63;;;;;;;31.37;28.90;98910.03;7018500;28;20189;-80
2022/05/12 12:56:37;;;;;;;3.50;2.73;;;;;;;30.68;30.10;98911.53;7017594;28;20248;-80
2022/05/12 13:00:01;;;;;;;5.03;2.77;;;;;;;30.34;30.62;98905.22;7024833;28;20194;-80
2022/05/12 13:03:23;;;;;;;6.43;3.03;;;;;;;29.77;30.53;98907.38;7015789;28;20657;-79
2022/05/12 13:06:51;;;;;;;4.93;2.43;;;;;;;30.40;30.24;98906.66;7010270;28;20226;-80
2022/05/12 13:10:16;;;;;;;7.27;2.97;;;;;;;29.82;31.09;98917.50;7020968;28;20203;-80
2022/05/12 13:13:48;;;;;;;6.20;3.07;;;;;;;30.08;31.12;98915.56;7021540;28;20200;-80
2022/05/12 13:17:18;;;;;;;4.77;2.63;;;;;;;30.24;30.84;98898.03;7010524;28;20237;-81
2022/05/12 13:20:41;;;;;;;5.57;2.77;;;;;;;30.86;29.99;98896.38;7022140;28;20691;-81
2022/05/12 13:24:07;;;;;;;3.63;2.83;;;;;;;31.54;29.50;98882.03;7021992;28;20194;-81
2022/05/12 13:27:35;;;;;;;4.80;2.37;;;;;;;30.44;30.27;98857.56;7018068;28;20709;-80
2022/05/12 13:31:14;;;;;;;5.53;2.70;;;;;;;29.74;31.35;98865.53;7039488;28;20226;-80
2022/05/12 13:34:36;;;;;;;4.73;2.57;;;;;;;30.56;30.71;98891.91;7039321;28;20201;-80
2022/05/12 13:38:03;;;;;;;3.17;2.70;;;;;;;30.69;30.56;98849.13;7038268;28;20235;-80
2022/05/12 13:41:30;;;;;;;3.43;2.63;;;;;;;30.44;30.50;98886.19;7038275;28;20206;-80
2022/05/12 13:44:54;;;;;;;3.20;2.70;;;;;;;31.32;29.92;98874.00;7018930;28;20232;-80
2022/05/12 13:48:21;;;;;;;6.23;2.70;;;;;;;31.12;29.42;98880.34;7014827;28;20198;-80
2022/05/12 13:51:46;;;;;;;5.03;3.03;;;;;;;30.87;30.11;98872.94;7027041;28;20220;-80
2022/05/12 13:55:17;;;;;;;4.40;2.67;;;;;;;29.88;31.59;98866.97;7005950;28;20279;-80
2022/05/12 13:58:48;;;;;;;4.60;2.70;;;;;;;30.24;31.49;98878.56;7005470;28;20372;-80
2022/05/12 14:02:15;;;;;;;5.40;3.17;;;;;;;29.25;32.06;98865.97;7008112;28;20191;-80
2022/05/12 14:05:36;;;;;;;5.20;2.97;;;;;;;29.43;32.30;98862.88;7007004;28;20228;-80
2022/05/12 14:09:05;;;;;;;3.20;2.90;;;;;;;29.23;32.62;98857.13;7007304;28;20232;-80
2022/05/12 14:12:29;;;;;;;5.03;2.70;;;;;;;29.70;32.06;98864.53;7007780;28;20197;-80
2022/05/12 14:19:36;;;;;;;4.87;2.70;;;;;;;29.78;31.62;98850.63;7007827;28;20268;-80
2022/05/12 14:22:58;;;;;;;4.03;2.80;;;;;;;30.05;31.96;98847.50;7007166;28;20200;-80
2022/05/12 14:26:20;;;;;;;3.30;2.53;;;;;;;30.02;31.43;98852.91;7006521;28;20229;-80
2022/05/12 14:29:42;;;;;;;5.87;2.80;;;;;;;29.51;32.49;98859.28;7007337;28;20193;-80
2022/05/12 14:33:05;;;;;;;3.03;2.73;;;;;;;29.54;31.78;98855.88;7006830;28;20213;-81
2022/05/12 14:36:27;;;;;;;6.17;2.77;;;;;;;29.73;32.03;98841.66;7019828;28;20221;-80
2022/05/12 14:39:48;;;;;;;2.87;2.57;;;;;;;30.17;30.93;98860.72;7025808;28;20197;-80
2022/05/12 14:43:10;;;;;;;6.40;2.70;;;;;;;29.09;32.57;98854.53;7007032;28;20261;-80
2022/05/12 14:46:35;;;;;;;4.77;3.17;;;;;;;29.12;33.18;98805.81;7005651;28;20231;-80
2022/05/12 14:49:58;;;;;;;3.87;2.70;;;;;;;29.24;33.35;98842.94;7006065;28;20719;-80
2022/05/12 14:53:20;;;;;;;3.50;2.70;;;;;;;29.60;32.91;98849.00;7009749;28;20203;-80
2022/05/12 14:56:42;;;;;;;4.53;2.80;;;;;;;28.95;33.35;98851.03;7021165;28;20223;-83
2022/05/12 15:00:04;;;;;;;2.83;2.60;;;;;;;29.35;33.13;98851.75;7006081;28;20211;-81
2022/05/12 15:03:26;;;;;;;5.67;2.60;;;;;;;29.49;33.31;98844.09;7004735;28;20230;-81
2022/05/12 15:06:50;;;;;;;3.20;2.80;;;;;;;29.70;32.74;98832.00;7018010;28;20601;-80
2022/05/12 15:10:13;;;;;;;5.70;2.60;;;;;;;30.20;31.92;98826.72;7026938;28;20565;-80
2022/05/12 15:13:34;;;;;;;2.93;2.63;;;;;;;30.09;32.36;98833.75;7017201;28;20605;-80
2022/05/12 15:16:58;;;;;;;6.43;2.87;;;;;;;29.12;33.64;98833.59;7014914;28;20230;-81
2022/05/12 15:20:22;;;;;;;4.23;2.90;;;;;;;29.12;33.15;98833.59;7030637;28;20521;-81
2022/05/12 15:23:45;;;;;;;5.63;3.10;;;;;;;28.72;34.00;98813.41;7025503;28;20546;-80
2022/05/12 15:27:08;;;;;;;4.77;2.80;;;;;;;29.20;33.24;98824.47;7031842;28;20308;-81
2022/05/12 15:30:30;;;;;;;4.20;3.30;;;;;;;29.58;32.92;98820.75;7031282;28;20213;-81
2022/05/12 15:33:54;;;;;;;4.93;2.73;;;;;;;29.06;33.18;98826.56;7015675;28;20220;-80
2022/05/12 15:37:16;;;;;;;4.27;2.80;;;;;;;29.09;33.55;98823.13;7003956;28;20226;-80
2022/05/12 15:40:39;;;;;;;5.67;2.90;;;;;;;29.41;33.65;98819.88;7005020;28;20204;-80
2022/05/12 15:44:00;;;;;;;4.00;3.07;;;;;;;29.68;32.90;98836.25;7004959;28;20207;-80
2022/05/12 15:47:25;;;;;;;3.50;2.73;;;;;;;29.47;33.13;98824.13;7004404;28;20303;-80
2022/05/12 15:50:48;;;;;;;4.77;3.00;;;;;;;28.31;35.43;98796.25;7006744;28;20669;-80
2022/05/12 15:54:10;;;;;;;6.97;3.23;;;;;;;28.70;34.50;98826.78;7031501;28;20201;-81
2022/05/12 15:57:33;;;;;;;3.90;3.10;;;;;;;28.16;35.21;98823.59;7032108;28;20235;-80
2022/05/12 16:00:55;;;;;;;4.20;3.10;;;;;;;28.06;35.68;98819.13;7032295;28;20205;-80
2022/05/12 16:04:17;;;;;;;3.47;3.17;;;;;;;28.12;35.32;98789.31;7032182;28;20212;-81
2022/05/12 16:07:39;;;;;;;4.00;2.83;;;;;;;28.55;34.87;98813.34;7033295;28;20208;-80
2022/05/12 16:11:01;;;;;;;3.87;2.90;;;;;;;28.20;35.65;98822.63;7023773;28;20295;-81
2022/05/12 16:14:27;;;;;;;3.90;2.60;;;;;;;28.58;34.95;98812.72;7029486;28;20210;-81
2022/05/12 16:17:50;;;;;;;4.70;3.13;;;;;;;27.95;36.26;98820.53;7033749;28;20718;-80
2022/05/12 16:21:12;;;;;;;4.10;2.90;;;;;;;27.98;36.84;98828.22;7034611;28;20204;-80
2022/05/12 16:24:33;;;;;;;4.77;3.13;;;;;;;27.71;37.39;98833.88;7033388;28;20221;-81
2022/05/12 16:27:58;;;;;;;6.83;5.27;;;;;;;27.65;38.28;98840.69;7033538;28;20294;-82